sensor_id;sensor_type;location;lat;lon;timestamp;P1;durP1;ratioP1;P2;durP2;ratioP2
48789;SDS011;41718;51.980;5.734;2023-11-18T00:00:07;47.08;;;22.88;;
48789;SDS011;41718;51.980;5.734;2023-11-18T00:05:14;38.30;;;21.05;;
48789;SDS011;41718;51.980;5.734;2023-11-18T00:10:16;45.28;;;20.75;;
48789;SDS011;41718;51.980;5.734;2023-11-18T00:15:18;47.47;;;20.30;;
48789;SDS011;41718;51.980;5.734;2023-11-18T00:20:21;40.75;;;20.48;;
48789;SDS011;41718;51.980;5.734;2023-11-18T00:25:26;38.90;;;20.05;;
48789;SDS011;41718;51.980;5.734;2023-11-18T00:30:27;42.63;;;21.20;;
48789;SDS011;41718;51.980;5.734;2023-11-18T00:35:29;41.13;;;19.55;;
48789;SDS011;41718;51.980;5.734;2023-11-18T00:40:35;42.45;;;19.35;;
48789;SDS011;41718;51.980;5.734;2023-11-18T00:45:37;39.63;;;18.77;;
48789;SDS011;41718;51.980;5.734;2023-11-18T00:50:39;44.40;;;20.20;;
48789;SDS011;41718;51.980;5.734;2023-11-18T00:55:41;34.03;;;17.73;;
48789;SDS011;41718;51.980;5.734;2023-11-18T01:00:43;40.55;;;19.92;;
48789;SDS011;41718;51.980;5.734;2023-11-18T01:05:44;38.42;;;18.63;;
48789;SDS011;41718;51.980;5.734;2023-11-18T01:10:46;39.38;;;17.75;;
48789;SDS011;41718;51.980;5.734;2023-11-18T01:15:48;37.13;;;18.90;;
48789;SDS011;41718;51.980;5.734;2023-11-18T01:20:50;33.47;;;15.85;;
48789;SDS011;41718;51.980;5.734;2023-11-18T01:25:52;33.00;;;16.10;;
48789;SDS011;41718;51.980;5.734;2023-11-18T01:30:54;34.10;;;17.65;;
48789;SDS011;41718;51.980;5.734;2023-11-18T01:35:55;37.85;;;19.02;;
48789;SDS011;41718;51.980;5.734;2023-11-18T01:40:57;37.10;;;19.05;;
48789;SDS011;41718;51.980;5.734;2023-11-18T01:45:59;36.55;;;20.63;;
48789;SDS011;41718;51.980;5.734;2023-11-18T01:51:03;30.65;;;17.90;;
48789;SDS011;41718;51.980;5.734;2023-11-18T01:56:07;38.22;;;18.58;;
48789;SDS011;41718;51.980;5.734;2023-11-18T02:01:10;36.05;;;18.15;;
48789;SDS011;41718;51.980;5.734;2023-11-18T02:06:11;39.40;;;18.75;;
48789;SDS011;41718;51.980;5.734;2023-11-18T02:11:20;43.03;;;21.77;;
48789;SDS011;41718;51.980;5.734;2023-11-18T02:16:31;40.40;;;20.77;;
48789;SDS011;41718;51.980;5.734;2023-11-18T02:21:33;41.90;;;20.50;;
48789;SDS011;41718;51.980;5.734;2023-11-18T02:26:36;53.22;;;22.27;;
48789;SDS011;41718;51.980;5.734;2023-11-18T02:31:38;51.47;;;24.42;;
48789;SDS011;41718;51.980;5.734;2023-11-18T02:36:41;50.78;;;24.55;;
48789;SDS011;41718;51.980;5.734;2023-11-18T02:41:47;51.42;;;22.80;;
48789;SDS011;41718;51.980;5.734;2023-11-18T02:46:52;42.87;;;20.00;;
48789;SDS011;41718;51.980;5.734;2023-11-18T02:51:54;45.65;;;22.38;;
48789;SDS011;41718;51.980;5.734;2023-11-18T02:56:56;45.88;;;20.38;;
48789;SDS011;41718;51.980;5.734;2023-11-18T03:01:57;38.85;;;21.23;;
48789;SDS011;41718;51.980;5.734;2023-11-18T03:06:59;58.55;;;27.25;;
48789;SDS011;41718;51.980;5.734;2023-11-18T03:12:02;39.67;;;20.80;;
48789;SDS011;41718;51.980;5.734;2023-11-18T03:17:03;41.38;;;20.33;;
48789;SDS011;41718;51.980;5.734;2023-11-18T03:22:07;43.75;;;21.90;;
48789;SDS011;41718;51.980;5.734;2023-11-18T03:27:09;38.60;;;20.50;;
48789;SDS011;41718;51.980;5.734;2023-11-18T03:32:10;49.50;;;22.00;;
48789;SDS011;41718;51.980;5.734;2023-11-18T03:37:13;49.00;;;21.90;;
48789;SDS011;41718;51.980;5.734;2023-11-18T03:42:15;46.08;;;22.10;;
48789;SDS011;41718;51.980;5.734;2023-11-18T03:47:17;47.15;;;23.45;;
48789;SDS011;41718;51.980;5.734;2023-11-18T03:52:18;46.78;;;23.38;;
48789;SDS011;41718;51.980;5.734;2023-11-18T03:57:20;44.03;;;22.38;;
48789;SDS011;41718;51.980;5.734;2023-11-18T04:02:22;43.80;;;20.50;;
48789;SDS011;41718;51.980;5.734;2023-11-18T04:07:24;51.65;;;22.77;;
48789;SDS011;41718;51.980;5.734;2023-11-18T04:12:25;46.65;;;22.13;;
48789;SDS011;41718;51.980;5.734;2023-11-18T04:17:28;42.00;;;20.75;;
48789;SDS011;41718;51.980;5.734;2023-11-18T04:22:29;46.15;;;23.23;;
48789;SDS011;41718;51.980;5.734;2023-11-18T04:27:31;54.67;;;22.02;;
48789;SDS011;41718;51.980;5.734;2023-11-18T04:32:33;50.55;;;23.95;;
48789;SDS011;41718;51.980;5.734;2023-11-18T04:37:35;51.55;;;22.23;;
48789;SDS011;41718;51.980;5.734;2023-11-18T04:42:37;49.70;;;20.65;;
48789;SDS011;41718;51.980;5.734;2023-11-18T04:47:39;42.33;;;22.25;;
48789;SDS011;41718;51.980;5.734;2023-11-18T04:52:44;47.55;;;22.27;;
48789;SDS011;41718;51.980;5.734;2023-11-18T04:57:45;51.85;;;22.08;;
48789;SDS011;41718;51.980;5.734;2023-11-18T05:02:48;44.38;;;20.67;;
48789;SDS011;41718;51.980;5.734;2023-11-18T05:07:50;46.80;;;21.00;;
48789;SDS011;41718;51.980;5.734;2023-11-18T05:12:51;43.28;;;21.88;;
48789;SDS011;41718;51.980;5.734;2023-11-18T05:17:57;41.45;;;19.58;;
48789;SDS011;41718;51.980;5.734;2023-11-18T05:22:58;39.63;;;18.17;;
48789;SDS011;41718;51.980;5.734;2023-11-18T05:28:00;36.95;;;19.30;;
48789;SDS011;41718;51.980;5.734;2023-11-18T05:33:02;42.08;;;21.92;;
48789;SDS011;41718;51.980;5.734;2023-11-18T05:38:06;40.95;;;20.02;;
48789;SDS011;41718;51.980;5.734;2023-11-18T05:43:08;42.15;;;20.45;;
48789;SDS011;41718;51.980;5.734;2023-11-18T05:48:17;36.58;;;18.35;;
48789;SDS011;41718;51.980;5.734;2023-11-18T05:53:19;34.45;;;17.73;;
48789;SDS011;41718;51.980;5.734;2023-11-18T05:58:20;32.75;;;16.77;;
48789;SDS011;41718;51.980;5.734;2023-11-18T06:03:23;35.10;;;17.90;;
48789;SDS011;41718;51.980;5.734;2023-11-18T06:08:24;35.72;;;18.45;;
48789;SDS011;41718;51.980;5.734;2023-11-18T06:13:26;36.15;;;16.70;;
48789;SDS011;41718;51.980;5.734;2023-11-18T06:18:28;37.08;;;17.65;;
48789;SDS011;41718;51.980;5.734;2023-11-18T06:23:30;36.90;;;17.85;;
48789;SDS011;41718;51.980;5.734;2023-11-18T06:28:34;28.92;;;17.38;;
48789;SDS011;41718;51.980;5.734;2023-11-18T06:33:36;28.40;;;15.65;;
48789;SDS011;41718;51.980;5.734;2023-11-18T06:38:45;34.17;;;15.57;;
48789;SDS011;41718;51.980;5.734;2023-11-18T06:43:47;33.83;;;16.45;;
48789;SDS011;41718;51.980;5.734;2023-11-18T06:49:02;30.63;;;15.85;;
48789;SDS011;41718;51.980;5.734;2023-11-18T06:54:12;31.38;;;18.45;;
48789;SDS011;41718;51.980;5.734;2023-11-18T06:59:15;27.88;;;15.10;;
48789;SDS011;41718;51.980;5.734;2023-11-18T07:04:17;30.65;;;16.23;;
48789;SDS011;41718;51.980;5.734;2023-11-18T07:09:20;28.17;;;15.05;;
48789;SDS011;41718;51.980;5.734;2023-11-18T07:14:27;29.13;;;16.30;;
48789;SDS011;41718;51.980;5.734;2023-11-18T07:19:29;32.17;;;16.23;;
48789;SDS011;41718;51.980;5.734;2023-11-18T07:24:31;27.23;;;14.75;;
48789;SDS011;41718;51.980;5.734;2023-11-18T07:29:33;25.67;;;14.50;;
48789;SDS011;41718;51.980;5.734;2023-11-18T07:34:34;27.65;;;13.88;;
48789;SDS011;41718;51.980;5.734;2023-11-18T07:39:36;28.58;;;15.63;;
48789;SDS011;41718;51.980;5.734;2023-11-18T07:44:49;24.88;;;16.40;;
48789;SDS011;41718;51.980;5.734;2023-11-18T07:49:51;29.65;;;18.98;;
48789;SDS011;41718;51.980;5.734;2023-11-18T07:54:53;27.90;;;16.20;;
48789;SDS011;41718;51.980;5.734;2023-11-18T07:59:54;28.23;;;15.68;;
48789;SDS011;41718;51.980;5.734;2023-11-18T08:04:56;32.30;;;19.02;;
48789;SDS011;41718;51.980;5.734;2023-11-18T08:09:58;29.75;;;16.67;;
48789;SDS011;41718;51.980;5.734;2023-11-18T08:14:59;30.95;;;16.08;;
48789;SDS011;41718;51.980;5.734;2023-11-18T08:20:02;25.20;;;14.77;;
48789;SDS011;41718;51.980;5.734;2023-11-18T08:25:15;37.47;;;20.63;;
48789;SDS011;41718;51.980;5.734;2023-11-18T08:30:18;31.77;;;15.02;;
48789;SDS011;41718;51.980;5.734;2023-11-18T08:35:21;27.67;;;14.80;;
48789;SDS011;41718;51.980;5.734;2023-11-18T08:40:23;28.20;;;14.88;;
48789;SDS011;41718;51.980;5.734;2023-11-18T08:45:27;25.50;;;14.27;;
48789;SDS011;41718;51.980;5.734;2023-11-18T08:50:35;20.77;;;12.77;;
48789;SDS011;41718;51.980;5.734;2023-11-18T08:55:37;25.13;;;13.07;;
48789;SDS011;41718;51.980;5.734;2023-11-18T09:00:51;21.42;;;13.98;;
48789;SDS011;41718;51.980;5.734;2023-11-18T09:05:57;23.83;;;13.30;;
48789;SDS011;41718;51.980;5.734;2023-11-18T09:11:03;28.85;;;13.48;;
48789;SDS011;41718;51.980;5.734;2023-11-18T09:16:06;34.45;;;17.30;;
48789;SDS011;41718;51.980;5.734;2023-11-18T09:21:11;23.92;;;13.77;;
48789;SDS011;41718;51.980;5.734;2023-11-18T09:26:17;32.87;;;17.30;;
48789;SDS011;41718;51.980;5.734;2023-11-18T09:31:20;26.77;;;15.57;;
48789;SDS011;41718;51.980;5.734;2023-11-18T09:36:23;28.52;;;13.88;;
48789;SDS011;41718;51.980;5.734;2023-11-18T09:41:24;23.90;;;11.23;;
48789;SDS011;41718;51.980;5.734;2023-11-18T09:46:29;26.85;;;12.38;;
48789;SDS011;41718;51.980;5.734;2023-11-18T09:51:38;19.43;;;10.67;;
48789;SDS011;41718;51.980;5.734;2023-11-18T09:56:41;20.05;;;10.32;;
48789;SDS011;41718;51.980;5.734;2023-11-18T10:01:58;21.67;;;10.77;;
48789;SDS011;41718;51.980;5.734;2023-11-18T10:07:01;16.75;;;9.63;;
48789;SDS011;41718;51.980;5.734;2023-11-18T10:12:04;21.85;;;10.00;;
48789;SDS011;41718;51.980;5.734;2023-11-18T10:17:09;24.65;;;11.10;;
48789;SDS011;41718;51.980;5.734;2023-11-18T10:22:20;18.92;;;9.95;;
48789;SDS011;41718;51.980;5.734;2023-11-18T10:27:27;22.48;;;11.63;;
48789;SDS011;41718;51.980;5.734;2023-11-18T10:32:29;19.48;;;9.77;;
48789;SDS011;41718;51.980;5.734;2023-11-18T10:37:37;15.60;;;9.70;;
48789;SDS011;41718;51.980;5.734;2023-11-18T10:42:45;21.58;;;10.93;;
48789;SDS011;41718;51.980;5.734;2023-11-18T10:47:50;19.25;;;8.98;;
48789;SDS011;41718;51.980;5.734;2023-11-18T10:52:52;18.10;;;9.65;;
48789;SDS011;41718;51.980;5.734;2023-11-18T10:57:55;18.00;;;11.88;;
48789;SDS011;41718;51.980;5.734;2023-11-18T11:03:05;16.92;;;10.43;;
48789;SDS011;41718;51.980;5.734;2023-11-18T11:08:06;19.60;;;10.95;;
48789;SDS011;41718;51.980;5.734;2023-11-18T11:13:09;16.58;;;10.88;;
48789;SDS011;41718;51.980;5.734;2023-11-18T11:18:12;22.38;;;11.73;;
48789;SDS011;41718;51.980;5.734;2023-11-18T11:38:55;14.63;;;8.38;;
48789;SDS011;41718;51.980;5.734;2023-11-18T11:43:57;18.27;;;9.45;;
48789;SDS011;41718;51.980;5.734;2023-11-18T11:49:03;14.27;;;8.20;;
48789;SDS011;41718;51.980;5.734;2023-11-18T11:54:35;20.83;;;9.20;;
48789;SDS011;41718;51.980;5.734;2023-11-18T12:04:46;15.60;;;6.38;;
48789;SDS011;41718;51.980;5.734;2023-11-18T12:09:49;11.30;;;8.45;;
48789;SDS011;41718;51.980;5.734;2023-11-18T12:14:58;11.77;;;6.75;;
48789;SDS011;41718;51.980;5.734;2023-11-18T12:20:37;14.20;;;6.38;;
48789;SDS011;41718;51.980;5.734;2023-11-18T12:25:53;9.97;;;5.13;;
48789;SDS011;41718;51.980;5.734;2023-11-18T12:31:00;10.55;;;5.43;;
48789;SDS011;41718;51.980;5.734;2023-11-18T12:41:35;9.52;;;4.88;;
48789;SDS011;41718;51.980;5.734;2023-11-18T12:46:48;8.13;;;5.15;;
48789;SDS011;41718;51.980;5.734;2023-11-18T12:52:11;7.88;;;5.00;;
48789;SDS011;41718;51.980;5.734;2023-11-18T12:57:37;11.95;;;5.18;;
48789;SDS011;41718;51.980;5.734;2023-11-18T13:02:40;5.90;;;4.18;;
48789;SDS011;41718;51.980;5.734;2023-11-18T13:07:44;10.70;;;4.07;;
48789;SDS011;41718;51.980;5.734;2023-11-18T13:12:48;7.67;;;5.23;;
48789;SDS011;41718;51.980;5.734;2023-11-18T13:18:00;7.97;;;5.18;;
48789;SDS011;41718;51.980;5.734;2023-11-18T13:23:11;5.00;;;3.58;;
48789;SDS011;41718;51.980;5.734;2023-11-18T13:28:13;6.07;;;3.60;;
48789;SDS011;41718;51.980;5.734;2023-11-18T13:33:17;3.67;;;2.92;;
48789;SDS011;41718;51.980;5.734;2023-11-18T13:38:19;7.88;;;2.83;;
48789;SDS011;41718;51.980;5.734;2023-11-18T13:43:22;4.28;;;3.38;;
48789;SDS011;41718;51.980;5.734;2023-11-18T13:48:27;3.22;;;2.92;;
48789;SDS011;41718;51.980;5.734;2023-11-18T13:53:31;3.15;;;2.60;;
48789;SDS011;41718;51.980;5.734;2023-11-18T13:58:33;3.47;;;2.75;;
48789;SDS011;41718;51.980;5.734;2023-11-18T14:03:35;7.90;;;3.92;;
48789;SDS011;41718;51.980;5.734;2023-11-18T14:08:41;5.10;;;2.97;;
48789;SDS011;41718;51.980;5.734;2023-11-18T14:13:44;11.20;;;5.35;;
48789;SDS011;41718;51.980;5.734;2023-11-18T14:18:46;8.18;;;4.38;;
48789;SDS011;41718;51.980;5.734;2023-11-18T14:23:49;4.00;;;2.80;;
48789;SDS011;41718;51.980;5.734;2023-11-18T14:28:52;4.07;;;2.63;;
48789;SDS011;41718;51.980;5.734;2023-11-18T14:33:54;4.82;;;3.10;;
48789;SDS011;41718;51.980;5.734;2023-11-18T14:39:00;2.30;;;1.70;;
48789;SDS011;41718;51.980;5.734;2023-11-18T14:44:04;3.35;;;2.30;;
48789;SDS011;41718;51.980;5.734;2023-11-18T14:49:06;2.22;;;2.03;;
48789;SDS011;41718;51.980;5.734;2023-11-18T14:54:08;1.48;;;1.38;;
48789;SDS011;41718;51.980;5.734;2023-11-18T14:59:10;8.18;;;2.55;;
48789;SDS011;41718;51.980;5.734;2023-11-18T15:04:13;2.30;;;1.85;;
48789;SDS011;41718;51.980;5.734;2023-11-18T15:09:15;2.13;;;1.95;;
48789;SDS011;41718;51.980;5.734;2023-11-18T15:14:26;2.35;;;1.60;;
48789;SDS011;41718;51.980;5.734;2023-11-18T15:19:28;2.08;;;1.90;;
48789;SDS011;41718;51.980;5.734;2023-11-18T15:24:33;1.63;;;1.53;;
48789;SDS011;41718;51.980;5.734;2023-11-18T15:29:36;2.88;;;1.83;;
48789;SDS011;41718;51.980;5.734;2023-11-18T15:34:46;3.42;;;2.53;;
48789;SDS011;41718;51.980;5.734;2023-11-18T15:39:48;8.73;;;5.57;;
48789;SDS011;41718;51.980;5.734;2023-11-18T15:44:50;5.65;;;3.88;;
48789;SDS011;41718;51.980;5.734;2023-11-18T15:49:57;5.55;;;3.40;;
48789;SDS011;41718;51.980;5.734;2023-11-18T15:55:04;3.28;;;2.92;;
48789;SDS011;41718;51.980;5.734;2023-11-18T16:00:16;2.92;;;2.63;;
48789;SDS011;41718;51.980;5.734;2023-11-18T16:05:22;3.20;;;2.50;;
48789;SDS011;41718;51.980;5.734;2023-11-18T16:10:26;3.72;;;2.70;;
48789;SDS011;41718;51.980;5.734;2023-11-18T16:15:29;4.10;;;3.70;;
48789;SDS011;41718;51.980;5.734;2023-11-18T16:20:31;4.18;;;3.78;;
48789;SDS011;41718;51.980;5.734;2023-11-18T16:25:34;3.88;;;3.40;;
48789;SDS011;41718;51.980;5.734;2023-11-18T16:30:37;3.33;;;3.03;;
48789;SDS011;41718;51.980;5.734;2023-11-18T16:35:39;16.70;;;11.02;;
48789;SDS011;41718;51.980;5.734;2023-11-18T16:40:40;4.20;;;3.80;;
48789;SDS011;41718;51.980;5.734;2023-11-18T16:45:42;2.63;;;1.80;;
48789;SDS011;41718;51.980;5.734;2023-11-18T16:50:44;7.22;;;3.95;;
48789;SDS011;41718;51.980;5.734;2023-11-18T16:55:46;4.95;;;4.55;;
48789;SDS011;41718;51.980;5.734;2023-11-18T17:00:48;3.35;;;3.05;;
48789;SDS011;41718;51.980;5.734;2023-11-18T17:05:52;3.50;;;3.10;;
48789;SDS011;41718;51.980;5.734;2023-11-18T17:10:53;3.15;;;2.85;;
48789;SDS011;41718;51.980;5.734;2023-11-18T17:15:55;3.42;;;2.67;;
48789;SDS011;41718;51.980;5.734;2023-11-18T17:20:57;2.05;;;1.73;;
48789;SDS011;41718;51.980;5.734;2023-11-18T17:25:58;5.03;;;2.22;;
48789;SDS011;41718;51.980;5.734;2023-11-18T17:31:00;3.53;;;2.38;;
48789;SDS011;41718;51.980;5.734;2023-11-18T17:36:04;3.60;;;2.92;;
48789;SDS011;41718;51.980;5.734;2023-11-18T17:41:05;2.53;;;2.33;;
48789;SDS011;41718;51.980;5.734;2023-11-18T17:46:07;3.45;;;2.95;;
48789;SDS011;41718;51.980;5.734;2023-11-18T17:51:11;4.97;;;3.85;;
48789;SDS011;41718;51.980;5.734;2023-11-18T17:56:13;5.15;;;4.05;;
48789;SDS011;41718;51.980;5.734;2023-11-18T18:01:14;6.60;;;5.00;;
48789;SDS011;41718;51.980;5.734;2023-11-18T18:06:20;6.17;;;5.00;;
48789;SDS011;41718;51.980;5.734;2023-11-18T18:11:22;5.45;;;4.57;;
48789;SDS011;41718;51.980;5.734;2023-11-18T18:16:23;5.30;;;4.47;;
48789;SDS011;41718;51.980;5.734;2023-11-18T18:21:25;9.80;;;6.88;;
48789;SDS011;41718;51.980;5.734;2023-11-18T18:26:27;10.65;;;6.90;;
48789;SDS011;41718;51.980;5.734;2023-11-18T18:31:28;8.07;;;5.75;;
48789;SDS011;41718;51.980;5.734;2023-11-18T18:36:30;9.73;;;7.05;;
48789;SDS011;41718;51.980;5.734;2023-11-18T18:41:31;11.93;;;8.00;;
48789;SDS011;41718;51.980;5.734;2023-11-18T18:46:33;14.60;;;9.55;;
48789;SDS011;41718;51.980;5.734;2023-11-18T18:51:34;9.80;;;7.50;;
48789;SDS011;41718;51.980;5.734;2023-11-18T18:56:36;10.93;;;7.88;;
48789;SDS011;41718;51.980;5.734;2023-11-18T19:01:39;14.27;;;9.02;;
48789;SDS011;41718;51.980;5.734;2023-11-18T19:06:46;15.05;;;9.32;;
48789;SDS011;41718;51.980;5.734;2023-11-18T19:11:48;15.18;;;8.70;;
48789;SDS011;41718;51.980;5.734;2023-11-18T19:16:50;10.50;;;6.45;;
48789;SDS011;41718;51.980;5.734;2023-11-18T19:21:52;16.55;;;10.18;;
48789;SDS011;41718;51.980;5.734;2023-11-18T19:26:54;19.85;;;10.25;;
48789;SDS011;41718;51.980;5.734;2023-11-18T19:31:57;15.57;;;9.68;;
48789;SDS011;41718;51.980;5.734;2023-11-18T19:36:59;16.05;;;10.00;;
48789;SDS011;41718;51.980;5.734;2023-11-18T19:42:00;16.13;;;10.05;;
48789;SDS011;41718;51.980;5.734;2023-11-18T19:47:02;12.95;;;9.02;;
48789;SDS011;41718;51.980;5.734;2023-11-18T19:52:05;12.70;;;8.50;;
48789;SDS011;41718;51.980;5.734;2023-11-18T19:57:08;17.70;;;10.13;;
48789;SDS011;41718;51.980;5.734;2023-11-18T20:02:10;17.10;;;9.85;;
48789;SDS011;41718;51.980;5.734;2023-11-18T20:07:12;16.35;;;9.27;;
48789;SDS011;41718;51.980;5.734;2023-11-18T20:12:22;20.05;;;11.05;;
48789;SDS011;41718;51.980;5.734;2023-11-18T20:17:24;17.08;;;11.02;;
48789;SDS011;41718;51.980;5.734;2023-11-18T20:22:26;20.90;;;11.05;;
48789;SDS011;41718;51.980;5.734;2023-11-18T20:27:29;28.27;;;13.00;;
48789;SDS011;41718;51.980;5.734;2023-11-18T20:32:31;18.25;;;12.20;;
48789;SDS011;41718;51.980;5.734;2023-11-18T20:37:34;20.77;;;11.60;;
48789;SDS011;41718;51.980;5.734;2023-11-18T20:42:39;21.98;;;12.13;;
48789;SDS011;41718;51.980;5.734;2023-11-18T20:47:44;23.63;;;12.75;;
48789;SDS011;41718;51.980;5.734;2023-11-18T20:52:47;20.13;;;11.40;;
48789;SDS011;41718;51.980;5.734;2023-11-18T20:57:53;18.42;;;9.95;;
48789;SDS011;41718;51.980;5.734;2023-11-18T21:02:58;19.70;;;10.95;;
48789;SDS011;41718;51.980;5.734;2023-11-18T21:08:04;23.80;;;12.88;;
48789;SDS011;41718;51.980;5.734;2023-11-18T21:13:10;25.95;;;14.13;;
48789;SDS011;41718;51.980;5.734;2023-11-18T21:18:16;29.40;;;14.60;;
48789;SDS011;41718;51.980;5.734;2023-11-18T21:23:27;25.40;;;13.80;;
48789;SDS011;41718;51.980;5.734;2023-11-18T21:28:29;26.75;;;14.77;;
48789;SDS011;41718;51.980;5.734;2023-11-18T21:33:37;26.13;;;13.30;;
48789;SDS011;41718;51.980;5.734;2023-11-18T21:38:42;30.98;;;14.25;;
48789;SDS011;41718;51.980;5.734;2023-11-18T21:43:52;28.85;;;13.85;;
48789;SDS011;41718;51.980;5.734;2023-11-18T21:49:04;30.33;;;14.48;;
48789;SDS011;41718;51.980;5.734;2023-11-18T21:54:12;33.00;;;17.67;;
48789;SDS011;41718;51.980;5.734;2023-11-18T21:59:19;32.08;;;16.00;;
48789;SDS011;41718;51.980;5.734;2023-11-18T22:04:21;25.70;;;14.95;;
48789;SDS011;41718;51.980;5.734;2023-11-18T22:09:26;30.83;;;16.67;;
48789;SDS011;41718;51.980;5.734;2023-11-18T22:14:30;35.75;;;17.85;;
48789;SDS011;41718;51.980;5.734;2023-11-18T22:19:35;33.08;;;17.88;;
48789;SDS011;41718;51.980;5.734;2023-11-18T22:24:37;40.58;;;20.20;;
48789;SDS011;41718;51.980;5.734;2023-11-18T22:29:43;41.58;;;18.70;;
48789;SDS011;41718;51.980;5.734;2023-11-18T22:34:53;41.72;;;21.48;;
48789;SDS011;41718;51.980;5.734;2023-11-18T22:39:57;42.90;;;20.08;;
48789;SDS011;41718;51.980;5.734;2023-11-18T22:44:59;42.35;;;20.10;;
48789;SDS011;41718;51.980;5.734;2023-11-18T22:50:01;35.08;;;19.52;;
48789;SDS011;41718;51.980;5.734;2023-11-18T22:55:07;32.47;;;18.42;;
48789;SDS011;41718;51.980;5.734;2023-11-18T23:00:16;22.63;;;13.25;;
48789;SDS011;41718;51.980;5.734;2023-11-18T23:05:37;29.25;;;17.15;;
48789;SDS011;41718;51.980;5.734;2023-11-18T23:10:44;39.95;;;17.55;;
48789;SDS011;41718;51.980;5.734;2023-11-18T23:15:48;22.35;;;11.13;;
48789;SDS011;41718;51.980;5.734;2023-11-18T23:20:56;15.50;;;10.23;;
48789;SDS011;41718;51.980;5.734;2023-11-18T23:25:59;19.55;;;9.38;;
48789;SDS011;41718;51.980;5.734;2023-11-18T23:31:02;17.25;;;11.00;;
48789;SDS011;41718;51.980;5.734;2023-11-18T23:36:06;20.33;;;10.25;;
48789;SDS011;41718;51.980;5.734;2023-11-18T23:41:14;15.25;;;8.10;;
48789;SDS011;41718;51.980;5.734;2023-11-18T23:46:17;15.38;;;10.20;;
48789;SDS011;41718;51.980;5.734;2023-11-18T23:51:19;16.98;;;9.65;;
48789;SDS011;41718;51.980;5.734;2023-11-18T23:56:26;10.85;;;6.72;;
